Observation data for Aspermont on 06/14/2019      Previous  Date  Next       Current Mesonet Observations  Soil Data  Daily Summary Page  Observations in Plain Language
KASR 140500Z 14007KT 22/14 A30 RMK A01 T02210140  RH  061%=      5-min Rain = 0
KASR 140505Z 13007KT 22/14 A30 RMK A01 T02210140  RH  061%=      5-min Rain = 0
KASR 140510Z 13007KT 22/14 A30 RMK A01 T02190140  RH  062%=      5-min Rain = 0
KASR 140515Z 14007KT 22/14 A30 RMK A01 T02180140  RH  063%=      5-min Rain = 0
KASR 140520Z 14007KT 22/14 A30 RMK A01 T02170140  RH  063%=      5-min Rain = 0
KASR 140525Z 14007KT 22/14 A30 RMK A01 T02170140  RH  063%=      5-min Rain = 0
KASR 140530Z 14007KT 22/14 A30 RMK A01 T02170140  RH  063%=      5-min Rain = 0
KASR 140535Z 13006KT 22/14 A30 RMK A01 T02170140  RH  063%=      5-min Rain = 0
KASR 140540Z 13007G12KT 22/14 A30 RMK A01 T02160139  RH  063%=      5-min Rain = 0
KASR 140545Z 13008KT 22/14 A30 RMK A01 T02160139  RH  063%=      5-min Rain = 0
KASR 140550Z 14009KT 22/14 A30 RMK A01 T02170138  RH  062%=      5-min Rain = 0
KASR 140555Z 15009G14KT 22/14 A30 RMK A01 T02190137  RH  061%=      5-min Rain = 0
KASR 140600Z 14009KT 22/14 A30 RMK A01 T02200137  RH  060%=      5-min Rain = 0
KASR 140605Z 14009G14KT 22/14 A30 RMK A01 T02200136  RH  060%=      5-min Rain = 0
KASR 140610Z 14008KT 22/14 A30 RMK A01 T02200136  RH  060%=      5-min Rain = 0
KASR 140615Z 14008KT 22/14 A30 RMK A01 T02200136  RH  060%=      5-min Rain = 0
KASR 140620Z 13008KT 22/14 A30 RMK A01 T02190135  RH  060%=      5-min Rain = 0
KASR 140625Z 14008KT 22/14 A2999 RMK A01 T02190135  RH  060%=      5-min Rain = 0
KASR 140630Z 13009G14KT 22/14 A2998 RMK A01 T02180135  RH  060%=      5-min Rain = 0
KASR 140635Z 13009G14KT 22/14 A2998 RMK A01 T02180135  RH  060%=      5-min Rain = 0
KASR 140640Z 14008G13KT 22/14 A2998 RMK A01 T02180135  RH  060%=      5-min Rain = 0
KASR 140645Z 14008KT 22/14 A2998 RMK A01 T02180135  RH  060%=      5-min Rain = 0
KASR 140650Z 14009KT 22/14 A2998 RMK A01 T02190135  RH  060%=      5-min Rain = 0
KASR 140655Z 14008G14KT 22/14 A2999 RMK A01 T02190135  RH  060%=      5-min Rain = 0
KASR 140700Z 14008KT 22/14 A2998 RMK A01 T02190135  RH  060%=      5-min Rain = 0
KASR 140705Z 14009KT 22/14 A2998 RMK A01 T02190135  RH  060%=      5-min Rain = 0
KASR 140710Z 14009KT 22/14 A2998 RMK A01 T02190136  RH  060%=      5-min Rain = 0
KASR 140715Z 14008G13KT 22/14 A2999 RMK A01 T02190136  RH  061%=      5-min Rain = 0
KASR 140720Z 14008KT 22/14 A2998 RMK A01 T02170137  RH  061%=      5-min Rain = 0
KASR 140725Z 13008KT 22/14 A2997 RMK A01 T02160137  RH  062%=      5-min Rain = 0
KASR 140730Z 12007KT 22/14 A2998 RMK A01 T02150137  RH  063%=      5-min Rain = 0
KASR 140735Z 12006KT 21/14 A2998 RMK A01 T02140137  RH  063%=      5-min Rain = 0
KASR 140740Z 12006KT 21/14 A2998 RMK A01 T02140138  RH  063%=      5-min Rain = 0
KASR 140745Z 12005G10KT 21/14 A2999 RMK A01 T02140138  RH  063%=      5-min Rain = 0
KASR 140750Z 13007KT 21/14 A2998 RMK A01 T02130139  RH  064%=      5-min Rain = 0
KASR 140755Z 13007KT 21/14 A2998 RMK A01 T02120139  RH  064%=      5-min Rain = 0
KASR 140800Z 13007KT 21/14 A2998 RMK A01 T02110139  RH  065%=      5-min Rain = 0
KASR 140805Z 13006KT 21/14 A2998 RMK A01 T02100140  RH  065%=      5-min Rain = 0
KASR 140810Z 13006KT 21/14 A2998 RMK A01 T02100140  RH  066%=      5-min Rain = 0
KASR 140815Z 13006KT 21/14 A2998 RMK A01 T02090140  RH  066%=      5-min Rain = 0
KASR 140820Z 12006KT 21/14 A2998 RMK A01 T02080141  RH  067%=      5-min Rain = 0
KASR 140825Z 12006KT 21/14 A2997 RMK A01 T02060141  RH  068%=      5-min Rain = 0
KASR 140830Z 12005KT 21/14 A2997 RMK A01 T02060142  RH  068%=      5-min Rain = 0
KASR 140835Z 12006KT 21/14 A2997 RMK A01 T02050142  RH  069%=      5-min Rain = 0
KASR 140840Z 12007KT 21/14 A2997 RMK A01 T02060143  RH  069%=      5-min Rain = 0
KASR 140845Z 13007KT 21/14 A2997 RMK A01 T02070143  RH  068%=      5-min Rain = 0
KASR 140850Z 13007KT 21/14 A2997 RMK A01 T02080144  RH  068%=      5-min Rain = 0
KASR 140855Z 12006KT 21/14 A2997 RMK A01 T02090144  RH  068%=      5-min Rain = 0
KASR 140900Z 12007KT 21/14 A2997 RMK A01 T02090144  RH  068%=      5-min Rain = 0
KASR 140905Z 12006KT 21/15 A2997 RMK A01 T02090145  RH  068%=      5-min Rain = 0
KASR 140910Z 12006KT 21/15 A2997 RMK A01 T02080145  RH  068%=      5-min Rain = 0
KASR 140915Z 11005KT 21/15 A2998 RMK A01 T02070145  RH  069%=      5-min Rain = 0
KASR 140920Z 11004KT 21/15 A2998 RMK A01 T02060145  RH  069%=      5-min Rain = 0
KASR 140925Z 10004KT 21/15 A2999 RMK A01 T02050145  RH  070%=      5-min Rain = 0
KASR 140930Z 09003KT 20/15 A30 RMK A01 T02040145  RH  071%=      5-min Rain = 0
KASR 140935Z 08004KT 20/15 A30 RMK A01 T02020146  RH  072%=      5-min Rain = 0
KASR 140940Z 09004KT 20/15 A30 RMK A01 T02010146  RH  072%=      5-min Rain = 0
KASR 140945Z 10005KT 20/15 A30 RMK A01 T02000147  RH  073%=      5-min Rain = 0
KASR 140950Z 10005KT 20/15 A30 RMK A01 T01980147  RH  074%=      5-min Rain = 0
KASR 140955Z 09004KT 20/15 A30 RMK A01 T01970147  RH  074%=      5-min Rain = 0
KASR 141000Z 08003KT 20/15 A3001 RMK A01 T01960148  RH  075%=      5-min Rain = 0
KASR 141005Z 09003KT 20/15 A30 RMK A01 T01950148  RH  076%=      5-min Rain = 0
KASR 141010Z 10004KT 19/15 A30 RMK A01 T01930149  RH  077%=      5-min Rain = 0
KASR 141015Z 08004KT 19/15 A30 RMK A01 T01910149  RH  079%=      5-min Rain = 0
KASR 141020Z 08004KT 19/15 A30 RMK A01 T01880149  RH  080%=      5-min Rain = 0
KASR 141025Z 09005KT 19/15 A30 RMK A01 T01860150  RH  081%=      5-min Rain = 0
KASR 141030Z 11006KT 19/15 A2999 RMK A01 T01870150  RH  081%=      5-min Rain = 0
KASR 141035Z 11007KT 19/15 A2999 RMK A01 T01910150  RH  079%=      5-min Rain = 0
KASR 141040Z 10006KT 19/15 A2999 RMK A01 T01930151  RH  078%=      5-min Rain = 0
KASR 141045Z 11007KT 19/15 A2999 RMK A01 T01930151  RH  078%=      5-min Rain = 0
KASR 141050Z 11007KT 19/15 A2998 RMK A01 T01930151  RH  078%=      5-min Rain = 0
KASR 141055Z 12007KT 19/15 A2998 RMK A01 T01940152  RH  078%=      5-min Rain = 0
KASR 141100Z 12008KT 19/15 A2998 RMK A01 T01940152  RH  078%=      5-min Rain = 0
KASR 141105Z 12008KT 20/15 A2997 RMK A01 T01950153  RH  078%=      5-min Rain = 0
KASR 141110Z 12007KT 20/15 A2998 RMK A01 T01950153  RH  078%=      5-min Rain = 0
KASR 141115Z 12007KT 20/15 A2998 RMK A01 T01950153  RH  079%=      5-min Rain = 0
KASR 141120Z 11007KT 20/15 A2998 RMK A01 T01950154  RH  079%=      5-min Rain = 0
KASR 141125Z 11006KT 19/15 A2998 RMK A01 T01940154  RH  080%=      5-min Rain = 0
KASR 141130Z 10006KT 19/15 A2999 RMK A01 T01930154  RH  080%=      5-min Rain = 0
KASR 141135Z 11005KT 19/15 A2999 RMK A01 T01920154  RH  081%=      5-min Rain = 0
KASR 141140Z 11006KT 19/16 A2999 RMK A01 T01900155  RH  082%=      5-min Rain = 0
KASR 141145Z 11006KT 19/16 A2999 RMK A01 T01900155  RH  082%=      5-min Rain = 0
KASR 141150Z 12006KT 19/16 A2999 RMK A01 T01900155  RH  082%=      5-min Rain = 0
KASR 141155Z 12007KT 19/16 A2999 RMK A01 T01910156  RH  082%=      5-min Rain = 0
KASR 141200Z 12007KT 19/16 A2998 RMK A01 T01910156  RH  082%=      5-min Rain = 0
KASR 141205Z 12007KT 19/16 A2998 RMK A01 T01920156  RH  082%=      5-min Rain = 0
KASR 141210Z 12008KT 19/16 A2998 RMK A01 T01920157  RH  082%=      5-min Rain = 0
KASR 141215Z 13007G12KT 19/16 A2997 RMK A01 T01920157  RH  082%=      5-min Rain = 0
KASR 141220Z 13008KT 19/16 A2997 RMK A01 T01930158  RH  082%=      5-min Rain = 0
KASR 141225Z 13008KT 20/16 A2997 RMK A01 T01950159  RH  081%=      5-min Rain = 0
KASR 141230Z 14007KT 20/16 A2997 RMK A01 T01970160  RH  081%=      5-min Rain = 0
KASR 141235Z 14008KT 20/16 A2997 RMK A01 T01970160  RH  081%=      5-min Rain = 0
KASR 141240Z 14009KT 20/16 A2997 RMK A01 T01990161  RH  081%=      5-min Rain = 0
KASR 141245Z 15009KT 20/16 A2997 RMK A01 T02020162  RH  080%=      5-min Rain = 0
KASR 141250Z 15009KT 21/16 A2997 RMK A01 T02060164  RH  079%=      5-min Rain = 0
KASR 141255Z 15009KT 21/17 A2997 RMK A01 T02060165  RH  079%=      5-min Rain = 0
KASR 141300Z 16009KT 21/17 A2997 RMK A01 T02090166  RH  078%=      5-min Rain = 0
KASR 141305Z 15009G14KT 21/17 A2997 RMK A01 T02120168  RH  078%=      5-min Rain = 0
KASR 141310Z 15009KT 22/17 A2996 RMK A01 T02150169  RH  077%=      5-min Rain = 0
KASR 141315Z 16011KT 22/17 A2996 RMK A01 T02170170  RH  077%=      5-min Rain = 0
KASR 141320Z 15012G17KT 22/17 A2996 RMK A01 T02170171  RH  077%=      5-min Rain = 0
KASR 141325Z 15011KT 22/17 A2995 RMK A01 T02190173  RH  077%=      5-min Rain = 0
KASR 141330Z 16013KT 22/17 A2995 RMK A01 T02210174  RH  077%=      5-min Rain = 0
KASR 141335Z 16012G19KT 22/18 A2995 RMK A01 T02220176  RH  077%=      5-min Rain = 0
KASR 141340Z 16013G19KT 22/18 A2995 RMK A01 T02240177  RH  076%=      5-min Rain = 0
KASR 141345Z 17014G20KT 23/18 A2995 RMK A01 T02270178  RH  076%=      5-min Rain = 0
KASR 141350Z 17015G20KT 23/18 A2995 RMK A01 T02250178  RH  076%=      5-min Rain = 0
KASR 141355Z 17014KT 23/18 A2994 RMK A01 T02250179  RH  077%=      5-min Rain = 0
KASR 141400Z 17015G20KT 23/18 A2994 RMK A01 T02280180  RH  076%=      5-min Rain = 0
KASR 141405Z 17014G19KT 24/18 A2993 RMK A01 T02350183  RH  074%=      5-min Rain = 0
KASR 141410Z 17015G22KT 23/18 A2993 RMK A01 T02330182  RH  075%=      5-min Rain = 0
KASR 141415Z 17014KT 23/18 A2993 RMK A01 T02320182  RH  076%=      5-min Rain = 0
KASR 141420Z 17015G21KT 23/18 A2993 RMK A01 T02320183  RH  076%=      5-min Rain = 0
KASR 141425Z 17014G19KT 23/18 A2992 RMK A01 T02340184  RH  076%=      5-min Rain = 0
KASR 141430Z 17014G20KT 24/19 A2992 RMK A01 T02420188  RH  074%=      5-min Rain = 0
KASR 141435Z 17015G22KT 25/19 A2992 RMK A01 T02450187  RH  072%=      5-min Rain = 0
KASR 141440Z 17015G20KT 25/19 A2992 RMK A01 T02450187  RH  072%=      5-min Rain = 0
KASR 141445Z 18017G23KT 25/19 A2992 RMK A01 T02500187  RH  070%=      5-min Rain = 0
KASR 141450Z 18017G24KT 25/19 A2992 RMK A01 T02490187  RH  070%=      5-min Rain = 0
KASR 141455Z 18018G24KT 25/19 A2992 RMK A01 T02490187  RH  070%=      5-min Rain = 0
KASR 141500Z 18017G22KT 26/19 A2991 RMK A01 T02560190  RH  069%=      5-min Rain = 0
KASR 141505Z 18019G26KT 26/19 A2991 RMK A01 T02620190  RH  066%=      5-min Rain = 0
KASR 141510Z 18021G26KT 26/19 A2991 RMK A01 T02630188  RH  065%=      5-min Rain = 0
KASR 141515Z 18020G26KT 27/19 A2991 RMK A01 T02660190  RH  065%=      5-min Rain = 0
KASR 141520Z 19020G26KT 27/19 A2991 RMK A01 T02680190  RH  064%=      5-min Rain = 0
KASR 141525Z 19019G26KT 27/19 A2991 RMK A01 T02680190  RH  064%=      5-min Rain = 0
KASR 141530Z 19018G24KT 27/19 A2991 RMK A01 T02650188  RH  064%=      5-min Rain = 0
KASR 141535Z 19018G23KT 27/19 A2991 RMK A01 T02670188  RH  064%=      5-min Rain = 0
KASR 141540Z 19017G23KT 27/19 A2991 RMK A01 T02690188  RH  063%=      5-min Rain = 0
KASR 141545Z 18017G22KT 27/19 A2991 RMK A01 T02690189  RH  063%=      5-min Rain = 0
KASR 141550Z 19015G21KT 26/19 A2991 RMK A01 T02640189  RH  065%=      5-min Rain = 0
KASR 141555Z 19015G22KT 27/19 A2991 RMK A01 T02670191  RH  065%=      5-min Rain = 0
KASR 141600Z 19017G24KT 28/19 A299 RMK A01 T02770192  RH  062%=      5-min Rain = 0
KASR 141605Z 19017G23KT 28/19 A299 RMK A01 T02800191  RH  060%=      5-min Rain = 0
KASR 141610Z 19017G23KT 28/19 A299 RMK A01 T02830192  RH  059%=      5-min Rain = 0
KASR 141615Z 18019G25KT 28/19 A299 RMK A01 T02820190  RH  059%=      5-min Rain = 0
KASR 141620Z 18020KT 28/19 A299 RMK A01 T02800188  RH  059%=      5-min Rain = 0
KASR 141625Z 18019G27KT 28/19 A299 RMK A01 T02800188  RH  059%=      5-min Rain = 0
KASR 141630Z 18018G24KT 28/19 A2991 RMK A01 T02790188  RH  059%=      5-min Rain = 0
KASR 141635Z 18019G25KT 28/19 A2991 RMK A01 T02780187  RH  059%=      5-min Rain = 0
KASR 141640Z 19020G28KT 27/18 A2991 RMK A01 T02740184  RH  060%=      5-min Rain = 0
KASR 141645Z 19016G24KT 27/18 A2991 RMK A01 T02730184  RH  060%=      5-min Rain = 0
KASR 141650Z 18015G21KT 27/19 A299 RMK A01 T02730186  RH  061%=      5-min Rain = 0
KASR 141655Z 18015G20KT 28/19 A299 RMK A01 T02750186  RH  060%=      5-min Rain = 0
KASR 141700Z 18017G22KT 28/19 A299 RMK A01 T02800186  RH  058%=      5-min Rain = 0
KASR 141705Z 20018G23KT 29/19 A2991 RMK A01 T02910187  RH  055%=      5-min Rain = 0
KASR 141710Z 19018G24KT 30/19 A2991 RMK A01 T02990187  RH  053%=      5-min Rain = 0
KASR 141715Z 19018G26KT 30/18 A2991 RMK A01 T02990184  RH  052%=      5-min Rain = 0
KASR 141720Z 20018G25KT 30/18 A299 RMK A01 T03020184  RH  050%=      5-min Rain = 0
KASR 141725Z 19015G20KT 30/18 A299 RMK A01 T02980183  RH  051%=      5-min Rain = 0
KASR 141730Z 19015G20KT 30/19 A299 RMK A01 T02960186  RH  053%=      5-min Rain = 0
KASR 141735Z 18016G23KT 30/19 A2989 RMK A01 T02980186  RH  052%=      5-min Rain = 0
KASR 141740Z 19017G23KT 30/18 A2989 RMK A01 T02960178  RH  051%=      5-min Rain = 0
KASR 141745Z 19018G25KT 29/18 A2989 RMK A01 T02920177  RH  051%=      5-min Rain = 0
KASR 141750Z 20016G22KT 29/18 A2989 RMK A01 T02910178  RH  052%=      5-min Rain = 0
KASR 141755Z 19013G19KT 29/18 A2989 RMK A01 T02940183  RH  053%=      5-min Rain = 0
KASR 141800Z 19014G22KT 30/18 A2989 RMK A01 T02950184  RH  053%=      5-min Rain = 0
KASR 141805Z 19015G21KT 30/19 A2988 RMK A01 T02980185  RH  052%=      5-min Rain = 0
KASR 141810Z 19016G22KT 30/19 A2988 RMK A01 T02990185  RH  052%=      5-min Rain = 0
KASR 141815Z 19018G27KT 30/18 A2988 RMK A01 T03000180  RH  050%=      5-min Rain = 0
KASR 141820Z 18015G21KT 30/19 A2988 RMK A01 T03040185  RH  050%=      5-min Rain = 0
KASR 141825Z 19018G24KT 30/18 A2988 RMK A01 T03030183  RH  050%=      5-min Rain = 0
KASR 141830Z 19016G21KT 30/18 A2987 RMK A01 T03020184  RH  050%=      5-min Rain = 0
KASR 141835Z 19018G25KT 30/18 A2987 RMK A01 T03010182  RH  050%=      5-min Rain = 0
KASR 141840Z 18018G24KT 30/18 A2987 RMK A01 T03030181  RH  049%=      5-min Rain = 0
KASR 141845Z 18016G21KT 30/18 A2987 RMK A01 T03030184  RH  050%=      5-min Rain = 0
KASR 141850Z 19019G26KT 31/18 A2987 RMK A01 T03050179  RH  048%=      5-min Rain = 0
KASR 141855Z 19020G28KT 31/18 A2987 RMK A01 T03060177  RH  047%=      5-min Rain = 0
KASR 141900Z 19017G25KT 31/18 A2986 RMK A01 T03090182  RH  048%=      5-min Rain = 0
KASR 141905Z 19018G26KT 31/18 A2986 RMK A01 T03130184  RH  047%=      5-min Rain = 0
KASR 141910Z 19019G26KT 31/18 A2986 RMK A01 T03080179  RH  047%=      5-min Rain = 0
KASR 141915Z 18017G23KT 31/19 A2986 RMK A01 T03110185  RH  048%=      5-min Rain = 0
KASR 141920Z 18020G27KT 32/19 A2985 RMK A01 T03150185  RH  047%=      5-min Rain = 0
KASR 141925Z 18020G25KT 32/19 A2985 RMK A01 T03180186  RH  047%=      5-min Rain = 0
KASR 141930Z 18018G24KT 32/19 A2985 RMK A01 T03170186  RH  047%=      5-min Rain = 0
KASR 141935Z 17018G25KT 31/18 A2985 RMK A01 T03120184  RH  048%=      5-min Rain = 0
KASR 141940Z 18017G22KT 32/19 A2984 RMK A01 T03200189  RH  047%=      5-min Rain = 0
KASR 141945Z 17020G25KT 32/19 A2984 RMK A01 T03230189  RH  046%=      5-min Rain = 0
KASR 141950Z 18019G25KT 33/19 A2984 RMK A01 T03250188  RH  045%=      5-min Rain = 0
KASR 141955Z 18018G25KT 33/19 A2984 RMK A01 T03260185  RH  045%=      5-min Rain = 0
KASR 142000Z 19019G26KT 33/19 A2984 RMK A01 T03290189  RH  045%=      5-min Rain = 0
KASR 142005Z 18016G23KT 33/19 A2984 RMK A01 T03310192  RH  045%=      5-min Rain = 0
KASR 142010Z 18016G21KT 33/19 A2983 RMK A01 T03340193  RH  045%=      5-min Rain = 0
KASR 142015Z 19019G29KT 34/19 A2983 RMK A01 T03360186  RH  042%=      5-min Rain = 0
KASR 142020Z 19019G25KT 33/18 A2983 RMK A01 T03340183  RH  042%=      5-min Rain = 0
KASR 142025Z 19017G24KT 34/19 A2983 RMK A01 T03360186  RH  042%=      5-min Rain = 0
KASR 142030Z 19019G25KT 34/18 A2983 RMK A01 T03370184  RH  041%=      5-min Rain = 0
KASR 142035Z 19016G24KT 34/19 A2983 RMK A01 T03380187  RH  042%=      5-min Rain = 0
KASR 142040Z 19020G25KT 34/18 A2983 RMK A01 T03360181  RH  041%=      5-min Rain = 0
KASR 142045Z 18016G25KT 34/19 A2982 RMK A01 T03400189  RH  042%=      5-min Rain = 0
KASR 142050Z 18020G25KT 34/18 A2982 RMK A01 T03360182  RH  041%=      5-min Rain = 0
KASR 142055Z 18017G24KT 34/19 A2982 RMK A01 T03380186  RH  042%=      5-min Rain = 0
KASR 142100Z 19017G25KT 34/19 A2982 RMK A01 T03390185  RH  041%=      5-min Rain = 0
KASR 142105Z 19017G23KT 34/19 A2982 RMK A01 T03380185  RH  041%=      5-min Rain = 0
KASR 142110Z 18019G25KT 34/18 A2982 RMK A01 T03400184  RH  041%=      5-min Rain = 0
KASR 142115Z 18018G25KT 34/18 A2982 RMK A01 T03380181  RH  040%=      5-min Rain = 0
KASR 142120Z 19016G22KT 34/18 A2982 RMK A01 T03400184  RH  041%=      5-min Rain = 0
KASR 142125Z 17016G22KT 34/19 A2982 RMK A01 T03420187  RH  041%=      5-min Rain = 0
KASR 142130Z 18018G25KT 34/18 A2981 RMK A01 T03400182  RH  040%=      5-min Rain = 0
KASR 142135Z 18017G26KT 34/18 ANAN RMK A01 T03400182  RH  040%=      5-min Rain = 0
KASR 142140Z 18019G24KT 34/18 A2981 RMK A01 T03390179  RH  040%=      5-min Rain = 0
KASR 142145Z 18019G24KT 34/18 A2981 RMK A01 T03400178  RH  039%=      5-min Rain = 0
KASR 142150Z 19017G26KT 34/18 A2981 RMK A01 T03410182  RH  040%=      5-min Rain = 0
KASR 142155Z 18019G25KT 34/18 A298 RMK A01 T03400181  RH  040%=      5-min Rain = 0
KASR 142200Z 19017G25KT 34/18 A298 RMK A01 T03400180  RH  040%=      5-min Rain = 0
KASR 142205Z 18016G21KT 34/18 A298 RMK A01 T03410183  RH  040%=      5-min Rain = 0
KASR 142210Z 18018G23KT 34/18 A298 RMK A01 T03400180  RH  040%=      5-min Rain = 0
KASR 142215Z 18017G23KT 34/18 A298 RMK A01 T03390184  RH  041%=      5-min Rain = 0
KASR 142220Z 18015G21KT 34/18 A2979 RMK A01 T03390184  RH  041%=      5-min Rain = 0
KASR 142225Z 17017G22KT 34/18 A2979 RMK A01 T03390179  RH  040%=      5-min Rain = 0
KASR 142230Z 18017G22KT 34/18 A2979 RMK A01 T03390182  RH  040%=      5-min Rain = 0
KASR 142235Z 18017G23KT 34/18 A2979 RMK A01 T03380181  RH  041%=      5-min Rain = 0
KASR 142240Z 18017G24KT 34/18 A2979 RMK A01 T03380181  RH  040%=      5-min Rain = 0
KASR 142245Z 18018KT 34/18 A2979 RMK A01 T03370181  RH  041%=      5-min Rain = 0
KASR 142250Z 18016G21KT 34/18 A2979 RMK A01 T03370183  RH  041%=      5-min Rain = 0
KASR 142255Z 18019G25KT 34/18 A2979 RMK A01 T03370180  RH  040%=      5-min Rain = 0
KASR 142300Z 18016G22KT 34/18 A2979 RMK A01 T03360181  RH  041%=      5-min Rain = 0
KASR 142305Z 18016G22KT 34/18 A2978 RMK A01 T03360184  RH  042%=      5-min Rain = 0
KASR 142310Z 18014G19KT 34/19 A2978 RMK A01 T03360187  RH  042%=      5-min Rain = 0
KASR 142315Z 19015G21KT 34/19 A2978 RMK A01 T03360187  RH  043%=      5-min Rain = 0
KASR 142320Z 18015G22KT 34/19 A2978 RMK A01 T03350186  RH  042%=      5-min Rain = 0
KASR 142325Z 18016G23KT 33/19 A2978 RMK A01 T03340186  RH  043%=      5-min Rain = 0
KASR 142330Z 18017G22KT 33/19 A2978 RMK A01 T03340186  RH  043%=      5-min Rain = 0
KASR 142335Z 18017G23KT 33/19 A2978 RMK A01 T03320186  RH  043%=      5-min Rain = 0
KASR 142340Z 18015G21KT 33/19 A2978 RMK A01 T03290186  RH  044%=      5-min Rain = 0
KASR 142345Z 18015G21KT 32/19 A2978 RMK A01 T03230186  RH  045%=      5-min Rain = 0
KASR 142350Z 17016G22KT 33/19 A2978 RMK A01 T03260185  RH  044%=      5-min Rain = 0
KASR 142355Z 18015G21KT 33/18 A2977 RMK A01 T03260184  RH  044%=      5-min Rain = 0
KASR 150000Z 18015G22KT 32/18 A2977 RMK A01 T03230182  RH  044%=      5-min Rain = 0
KASR 150005Z 18016G23KT 32/18 A2977 RMK A01 T03220183  RH  045%=      5-min Rain = 0
KASR 150010Z 18013G18KT 32/19 A2977 RMK A01 T03220187  RH  046%=      5-min Rain = 0
KASR 150015Z 17012G18KT 32/19 A2977 RMK A01 T03210189  RH  047%=      5-min Rain = 0
KASR 150020Z 18014G19KT 32/19 A2977 RMK A01 T03210187  RH  046%=      5-min Rain = 0
KASR 150025Z 17012KT 32/19 A2977 RMK A01 T03220189  RH  047%=      5-min Rain = 0
KASR 150030Z 17014G21KT 32/19 A2977 RMK A01 T03210189  RH  047%=      5-min Rain = 0
KASR 150035Z 17015G21KT 32/19 A2977 RMK A01 T03210187  RH  046%=      5-min Rain = 0
KASR 150040Z 17015G21KT 32/19 A2977 RMK A01 T03200187  RH  046%=      5-min Rain = 0
KASR 150045Z 17015G20KT 32/19 A2977 RMK A01 T03190187  RH  047%=      5-min Rain = 0
KASR 150050Z 17012G17KT 32/19 A2977 RMK A01 T03170189  RH  048%=      5-min Rain = 0
KASR 150055Z 17014G21KT 32/19 A2977 RMK A01 T03160189  RH  048%=      5-min Rain = 0
KASR 150100Z 17014G20KT 32/19 A2977 RMK A01 T03150187  RH  048%=      5-min Rain = 0
KASR 150105Z 17014G19KT 31/19 A2977 RMK A01 T03140186  RH  048%=      5-min Rain = 0
KASR 150110Z 17015KT 31/19 A2976 RMK A01 T03130185  RH  048%=      5-min Rain = 0
KASR 150115Z 17014G19KT 31/18 A2976 RMK A01 T03110183  RH  048%=      5-min Rain = 0
KASR 150120Z 17013G19KT 31/18 A2977 RMK A01 T03100183  RH  048%=      5-min Rain = 0
KASR 150125Z 17012KT 31/18 A2977 RMK A01 T03070184  RH  049%=      5-min Rain = 0
KASR 150130Z 17012G17KT 31/18 A2977 RMK A01 T03070183  RH  049%=      5-min Rain = 0
KASR 150135Z 17011G17KT 31/18 A2977 RMK A01 T03050184  RH  050%=      5-min Rain = 0
KASR 150140Z 17010KT 30/19 A2977 RMK A01 T03030185  RH  050%=      5-min Rain = 0
KASR 150145Z 17011KT 30/19 A2977 RMK A01 T03020185  RH  051%=      5-min Rain = 0
KASR 150150Z 17011G16KT 30/19 A2977 RMK A01 T03010185  RH  051%=      5-min Rain = 0
KASR 150155Z 17011G16KT 30/19 A2977 RMK A01 T02990185  RH  052%=      5-min Rain = 0
KASR 150200Z 17012G17KT 30/18 A2978 RMK A01 T02980184  RH  052%=      5-min Rain = 0
KASR 150205Z 17010G15KT 30/18 A2978 RMK A01 T02970184  RH  052%=      5-min Rain = 0
KASR 150210Z 17011KT 29/18 A2978 RMK A01 T02940183  RH  053%=      5-min Rain = 0
KASR 150215Z 18012KT 29/18 A2978 RMK A01 T02940182  RH  052%=      5-min Rain = 0
KASR 150220Z 18011G17KT 29/18 A2978 RMK A01 T02930182  RH  052%=      5-min Rain = 0
KASR 150225Z 18012KT 29/18 A2978 RMK A01 T02910181  RH  053%=      5-min Rain = 0
KASR 150230Z 17012G18KT 29/18 A2978 RMK A01 T02910180  RH  052%=      5-min Rain = 0
KASR 150235Z 17012G18KT 29/18 A2978 RMK A01 T02910180  RH  052%=      5-min Rain = 0
KASR 150240Z 17012G17KT 29/18 A2977 RMK A01 T02900180  RH  053%=      5-min Rain = 0
KASR 150245Z 17011KT 29/18 A2977 RMK A01 T02890181  RH  053%=      5-min Rain = 0
KASR 150250Z 17011KT 29/18 A2977 RMK A01 T02860182  RH  055%=      5-min Rain = 0
KASR 150255Z 17011KT 28/18 A2978 RMK A01 T02840183  RH  056%=      5-min Rain = 0
KASR 150300Z 17009KT 28/18 A2978 RMK A01 T02810184  RH  057%=      5-min Rain = 0
KASR 150305Z 17009G14KT 28/18 A2978 RMK A01 T02780184  RH  058%=      5-min Rain = 0
KASR 150310Z 18010KT 28/18 A2979 RMK A01 T02770184  RH  058%=      5-min Rain = 0
KASR 150315Z 18010KT 28/18 A298 RMK A01 T02760184  RH  059%=      5-min Rain = 0
KASR 150320Z 19010KT 28/18 A298 RMK A01 T02750184  RH  059%=      5-min Rain = 0
KASR 150325Z 18009KT 27/19 A298 RMK A01 T02710185  RH  061%=      5-min Rain = 0
KASR 150330Z 18009KT 27/19 A298 RMK A01 T02700185  RH  061%=      5-min Rain = 0
KASR 150335Z 18009KT 27/19 A298 RMK A01 T02690185  RH  061%=      5-min Rain = 0
KASR 150340Z 17009KT 27/19 A298 RMK A01 T02690185  RH  062%=      5-min Rain = 0
KASR 150345Z 17008KT 27/19 A2981 RMK A01 T02670185  RH  062%=      5-min Rain = 0
KASR 150350Z 18008KT 27/19 A2981 RMK A01 T02650185  RH  063%=      5-min Rain = 0
KASR 150355Z 17009KT 27/19 A2981 RMK A01 T02650185  RH  063%=      5-min Rain = 0
KASR 150400Z 17011KT 27/18 A2981 RMK A01 T02670184  RH  062%=      5-min Rain = 0
KASR 150405Z 17011KT 27/18 A2981 RMK A01 T02690184  RH  061%=      5-min Rain = 0
KASR 150410Z 17011KT 27/18 A2981 RMK A01 T02690184  RH  061%=      5-min Rain = 0
KASR 150415Z 17011KT 27/18 A2981 RMK A01 T02680184  RH  062%=      5-min Rain = 0
KASR 150420Z 17011KT 27/18 A2981 RMK A01 T02670184  RH  062%=      5-min Rain = 0
KASR 150425Z 18011KT 27/18 A2981 RMK A01 T02660184  RH  062%=      5-min Rain = 0
KASR 150430Z 17011KT 27/18 A2981 RMK A01 T02660184  RH  062%=      5-min Rain = 0
KASR 150435Z 17011KT 27/18 A298 RMK A01 T02650184  RH  063%=      5-min Rain = 0
KASR 150440Z 17011KT 27/18 A298 RMK A01 T02650184  RH  062%=      5-min Rain = 0
KASR 150445Z 18012KT 27/18 A298 RMK A01 T02650183  RH  062%=      5-min Rain = 0
KASR 150450Z 18011G16KT 27/18 A298 RMK A01 T02650183  RH  062%=      5-min Rain = 0
KASR 150455Z 18013KT 27/18 A298 RMK A01 T02650182  RH  062%=      5-min Rain = 0

Page generated in 0.0091 seconds.